createdAt,value
2022-07-29T00:00:25.382Z,1.70
2022-07-29T00:03:04.150Z,4.60
2022-07-29T00:05:32.569Z,2.70
2022-07-29T00:08:00.840Z,3.30
2022-07-29T00:10:29.428Z,2.70
2022-07-29T00:12:57.790Z,3.60
2022-07-29T00:15:26.506Z,5.60
2022-07-29T00:17:54.915Z,4.70
2022-07-29T00:20:23.537Z,5.30
2022-07-29T00:22:51.842Z,4.70
2022-07-29T00:25:20.418Z,4.80
2022-07-29T00:27:48.842Z,5.80
2022-07-29T00:30:17.389Z,6.10
2022-07-29T00:32:45.742Z,6.10
2022-07-29T00:35:32.821Z,4.20
2022-07-29T00:38:02.218Z,3.90
2022-07-29T00:40:30.880Z,6.60
2022-07-29T00:42:59.574Z,4.90
2022-07-29T00:45:28.272Z,3.80
2022-07-29T00:47:56.904Z,5.20
2022-07-29T00:50:25.494Z,4.40
2022-07-29T00:52:54.492Z,3.30
2022-07-29T00:55:23.586Z,6.60
2022-07-29T00:57:52.348Z,4.00
2022-07-29T01:00:23.739Z,3.30
2022-07-29T01:02:52.329Z,5.30
2022-07-29T01:05:51.028Z,4.00
2022-07-29T01:08:16.525Z,6.40
2022-07-29T01:10:45.667Z,4.10
2022-07-29T01:13:15.977Z,4.10
2022-07-29T01:16:00.455Z,5.90
2022-07-29T01:18:37.415Z,4.10
2022-07-29T01:21:27.496Z,3.60
2022-07-29T01:24:31.693Z,3.70
2022-07-29T01:27:24.007Z,3.40
2022-07-29T01:30:01.052Z,4.60
2022-07-29T01:32:32.782Z,2.40
2022-07-29T01:35:17.713Z,3.30
2022-07-29T01:38:02.864Z,4.60
2022-07-29T01:40:46.216Z,2.90
2022-07-29T01:43:41.692Z,4.00
2022-07-29T01:46:16.117Z,6.10
2022-07-29T01:48:54.585Z,5.60
2022-07-29T01:51:32.796Z,7.00
2022-07-29T01:54:21.691Z,3.40
2022-07-29T01:56:52.542Z,4.20
2022-07-29T01:59:22.873Z,2.50
2022-07-29T02:01:54.851Z,3.50
2022-07-29T02:04:28.948Z,3.40
2022-07-29T02:07:02.878Z,3.20
2022-07-29T02:09:34.578Z,4.40
2022-07-29T02:12:05.308Z,2.50
2022-07-29T02:14:39.417Z,5.20
2022-07-29T02:17:09.087Z,4.10
2022-07-29T02:19:39.861Z,2.90
2022-07-29T02:22:08.711Z,2.20
2022-07-29T02:24:38.796Z,6.90
2022-07-29T02:27:09.592Z,4.30
2022-07-29T02:29:39.061Z,4.10
2022-07-29T02:32:11.610Z,4.00
2022-07-29T02:34:42.713Z,3.80
2022-07-29T02:37:13.038Z,3.70
2022-07-29T02:39:43.773Z,4.50
2022-07-29T02:42:16.111Z,4.00
2022-07-29T02:44:45.140Z,3.30
2022-07-29T02:47:29.231Z,4.00
2022-07-29T02:50:18.726Z,5.40
2022-07-29T02:52:58.716Z,3.70
2022-07-29T02:55:38.864Z,6.40
2022-07-29T02:58:09.200Z,3.30
2022-07-29T03:00:40.303Z,4.80
2022-07-29T03:03:14.637Z,3.90
2022-07-29T03:05:43.478Z,3.00
2022-07-29T03:08:13.951Z,3.00
2022-07-29T03:10:45.277Z,3.10
2022-07-29T03:13:15.197Z,5.00
2022-07-29T03:15:46.413Z,3.90
2022-07-29T03:18:15.913Z,5.80
2022-07-29T03:20:44.722Z,4.40
2022-07-29T03:23:12.926Z,3.30
2022-07-29T03:25:41.143Z,4.60
2022-07-29T03:28:09.839Z,4.30
2022-07-29T03:30:38.265Z,3.90
2022-07-29T03:33:13.254Z,6.30
2022-07-29T03:35:42.100Z,3.00
2022-07-29T03:38:10.296Z,3.80
2022-07-29T03:40:52.872Z,5.80
2022-07-29T03:43:24.003Z,4.60
2022-07-29T03:45:55.156Z,5.10
2022-07-29T03:48:26.500Z,4.30
2022-07-29T03:50:54.870Z,9.90
2022-07-29T03:53:23.857Z,6.40
2022-07-29T03:56:00.348Z,5.00
2022-07-29T03:58:31.633Z,5.10
2022-07-29T04:01:00.743Z,5.50
2022-07-29T04:03:29.059Z,7.20
2022-07-29T04:06:02.071Z,6.80
2022-07-29T04:08:30.515Z,6.90
2022-07-29T04:10:58.761Z,7.10
2022-07-29T04:13:26.914Z,25.90
2022-07-29T04:15:55.244Z,37.30
2022-07-29T04:18:23.566Z,28.00
2022-07-29T04:20:51.947Z,22.00
2022-07-29T04:23:20.107Z,20.50
2022-07-29T04:25:48.431Z,17.70
2022-07-29T04:28:17.071Z,17.80
2022-07-29T04:30:45.470Z,14.10
2022-07-29T04:33:13.944Z,13.10
2022-07-29T04:35:50.539Z,13.50
2022-07-29T04:38:20.887Z,13.30
2022-07-29T04:40:49.792Z,13.70
2022-07-29T04:43:22.679Z,10.50
2022-07-29T04:45:52.581Z,9.20
2022-07-29T04:48:25.357Z,6.30
2022-07-29T04:50:57.706Z,6.90
2022-07-29T04:53:26.803Z,6.40
2022-07-29T04:55:55.202Z,7.40
2022-07-29T04:58:24.704Z,6.20
2022-07-29T05:00:52.899Z,9.50
2022-07-29T05:03:21.310Z,7.90
2022-07-29T05:05:49.538Z,7.30
2022-07-29T05:08:18.127Z,12.00
2022-07-29T05:10:46.724Z,7.80
2022-07-29T05:13:14.921Z,9.70
2022-07-29T05:15:43.199Z,5.90
2022-07-29T05:18:11.467Z,7.50
2022-07-29T05:20:40.404Z,3.70
2022-07-29T05:23:08.913Z,7.00
2022-07-29T05:25:44.195Z,3.10
2022-07-29T05:28:13.165Z,5.30
2022-07-29T05:30:41.483Z,1.70
2022-07-29T05:33:36.023Z,3.20
2022-07-29T05:36:00.611Z,1.50
2022-07-29T05:38:30.519Z,1.50
2022-07-29T05:41:00.327Z,1.80
2022-07-29T05:43:29.366Z,2.50
2022-07-29T05:45:58.259Z,2.00
2022-07-29T05:48:26.675Z,4.10
2022-07-29T05:50:55.838Z,3.50
2022-07-29T05:53:24.481Z,1.50
2022-07-29T05:55:53.290Z,3.70
2022-07-29T05:58:21.694Z,1.30
2022-07-29T06:00:50.071Z,1.90
2022-07-29T06:03:18.307Z,1.40
2022-07-29T06:05:46.522Z,1.80
2022-07-29T06:08:15.050Z,2.60
2022-07-29T06:10:43.329Z,2.50
2022-07-29T06:13:11.573Z,1.20
2022-07-29T06:15:40.498Z,0.70
2022-07-29T06:18:11.125Z,1.10
2022-07-29T06:20:39.568Z,2.40
2022-07-29T06:23:07.829Z,1.60
2022-07-29T06:25:37.911Z,2.10
2022-07-29T06:28:06.164Z,4.00
2022-07-29T06:30:34.579Z,0.70
2022-07-29T06:33:03.955Z,1.00
2022-07-29T06:35:41.801Z,1.80
2022-07-29T06:38:30.043Z,2.70
2022-07-29T06:41:03.811Z,1.10
2022-07-29T06:43:51.029Z,1.70
2022-07-29T06:46:24.333Z,2.40
2022-07-29T06:48:53.521Z,1.30
2022-07-29T06:51:23.949Z,1.80
2022-07-29T06:53:59.850Z,1.20
2022-07-29T06:56:38.648Z,1.70
2022-07-29T06:59:10.083Z,2.60
2022-07-29T07:01:40.562Z,2.80
2022-07-29T07:04:10.001Z,1.40
2022-07-29T07:06:39.061Z,1.30
2022-07-29T07:09:07.816Z,2.30
2022-07-29T07:11:36.182Z,2.40
2022-07-29T07:14:04.717Z,1.60
2022-07-29T07:16:33.675Z,1.30
2022-07-29T07:19:02.606Z,0.60
2022-07-29T07:21:31.379Z,1.70
2022-07-29T07:24:01.009Z,0.90
2022-07-29T07:26:29.532Z,2.50
2022-07-29T07:28:58.261Z,1.20
2022-07-29T07:31:26.596Z,2.70
2022-07-29T07:33:55.191Z,0.90
2022-07-29T07:36:23.975Z,1.60
2022-07-29T07:38:52.303Z,1.00
2022-07-29T07:41:20.865Z,0.90
2022-07-29T07:43:49.559Z,0.60
2022-07-29T07:46:18.163Z,0.60
2022-07-29T07:48:46.560Z,0.50
2022-07-29T07:51:14.898Z,0.70
2022-07-29T07:53:43.199Z,0.70
2022-07-29T07:56:12.815Z,2.50
2022-07-29T07:58:41.359Z,1.70
2022-07-29T08:01:10.558Z,1.10
2022-07-29T08:03:40.086Z,1.40
2022-07-29T08:06:08.950Z,2.40
2022-07-29T08:08:39.723Z,2.80
2022-07-29T08:11:09.784Z,1.60
2022-07-29T08:13:39.209Z,1.20
2022-07-29T08:16:16.169Z,1.70
2022-07-29T08:18:46.592Z,1.50
2022-07-29T08:21:17.053Z,1.30
2022-07-29T08:23:52.725Z,1.10
2022-07-29T08:26:26.367Z,1.00
2022-07-29T08:28:55.077Z,0.60
2022-07-29T08:31:23.550Z,2.10
2022-07-29T08:33:51.958Z,1.90
2022-07-29T08:36:22.169Z,1.60
2022-07-29T08:38:50.858Z,1.90
2022-07-29T08:41:23.137Z,0.50
2022-07-29T08:43:53.064Z,0.90
2022-07-29T08:46:22.237Z,2.00
2022-07-29T08:48:50.932Z,0.60
2022-07-29T08:51:21.347Z,0.70
2022-07-29T08:53:51.294Z,1.00
2022-07-29T08:56:20.824Z,2.90
2022-07-29T08:58:52.043Z,0.90
2022-07-29T09:01:35.960Z,2.20
2022-07-29T09:04:12.867Z,1.20
2022-07-29T09:06:46.105Z,1.00
2022-07-29T09:09:16.036Z,1.20
2022-07-29T09:11:44.888Z,1.10
2022-07-29T09:14:14.802Z,1.00
2022-07-29T09:17:00.919Z,1.20
2022-07-29T09:19:37.082Z,0.70
2022-07-29T09:22:07.934Z,0.90
2022-07-29T09:24:40.894Z,0.80
2022-07-29T09:27:23.269Z,1.00
2022-07-29T09:30:01.885Z,2.40
2022-07-29T09:32:30.752Z,2.30
2022-07-29T09:35:22.181Z,3.10
2022-07-29T09:37:51.634Z,1.60
2022-07-29T09:40:26.072Z,0.40
2022-07-29T09:42:58.521Z,0.60
2022-07-29T09:45:33.726Z,0.80
2022-07-29T09:48:24.727Z,0.80
2022-07-29T09:50:53.689Z,0.80
2022-07-29T09:53:39.154Z,1.00
2022-07-29T09:56:07.520Z,1.80
2022-07-29T09:58:36.016Z,0.50
2022-07-29T10:01:05.166Z,0.50
2022-07-29T10:03:33.982Z,0.70
2022-07-29T10:06:12.369Z,0.60
2022-07-29T10:08:42.830Z,1.20
2022-07-29T10:11:16.288Z,0.50
2022-07-29T10:13:47.875Z,0.30
2022-07-29T10:16:17.731Z,0.80
2022-07-29T10:18:47.964Z,0.40
2022-07-29T10:21:35.586Z,0.90
2022-07-29T10:24:06.106Z,0.80
2022-07-29T10:26:34.775Z,1.70
2022-07-29T10:29:03.102Z,0.40
2022-07-29T10:31:45.286Z,1.20
2022-07-29T10:34:34.932Z,0.70
2022-07-29T10:37:45.699Z,1.60
2022-07-29T10:40:48.176Z,0.70
2022-07-29T10:43:27.321Z,0.40
2022-07-29T10:46:00.430Z,1.90
2022-07-29T10:48:29.124Z,1.10
2022-07-29T10:51:05.310Z,0.90
2022-07-29T10:53:50.447Z,0.60
2022-07-29T10:56:30.168Z,0.70
2022-07-29T10:59:25.187Z,1.50
2022-07-29T11:04:46.937Z,1.20
2022-07-29T11:07:17.530Z,1.20
2022-07-29T11:10:14.376Z,2.50
2022-07-29T11:12:42.467Z,0.40
2022-07-29T11:15:19.871Z,0.70
2022-07-29T11:18:01.415Z,1.40
2022-07-29T11:20:37.906Z,0.90
2022-07-29T11:23:28.079Z,0.40
2022-07-29T11:26:34.891Z,2.40
2022-07-29T11:29:23.323Z,1.60
2022-07-29T11:31:56.853Z,0.90
2022-07-29T11:34:28.214Z,0.40
2022-07-29T11:37:16.142Z,2.70
2022-07-29T11:40:01.785Z,0.40
2022-07-29T11:42:35.246Z,0.50
2022-07-29T11:45:44.974Z,1.20
2022-07-29T11:48:29.147Z,3.80
2022-07-29T11:50:58.515Z,1.90
2022-07-29T11:53:29.078Z,0.40
2022-07-29T11:56:19.363Z,0.90
2022-07-29T11:58:47.895Z,2.20
2022-07-29T12:01:18.612Z,0.30
2022-07-29T12:03:46.959Z,0.90
2022-07-29T12:06:17.622Z,2.50
2022-07-29T12:08:47.365Z,0.50
2022-07-29T12:11:17.884Z,0.60
2022-07-29T12:13:50.930Z,0.90
2022-07-29T12:16:25.809Z,0.50
2022-07-29T12:19:02.883Z,1.80
2022-07-29T12:21:50.949Z,1.90
2022-07-29T12:24:26.726Z,2.50
2022-07-29T12:27:00.296Z,0.60
2022-07-29T12:29:34.893Z,0.60
2022-07-29T12:32:14.990Z,0.90
2022-07-29T12:34:48.588Z,1.00
2022-07-29T12:37:17.771Z,0.60
2022-07-29T12:39:46.475Z,1.20
2022-07-29T12:42:18.523Z,1.30
2022-07-29T12:44:52.346Z,1.10
2022-07-29T12:47:21.702Z,1.90
2022-07-29T12:49:50.865Z,0.60
2022-07-29T12:52:34.833Z,1.60
2022-07-29T12:55:04.183Z,2.00
2022-07-29T12:57:33.351Z,0.40
2022-07-29T13:00:06.326Z,2.20
2022-07-29T13:02:35.715Z,0.60
2022-07-29T13:05:07.594Z,1.50
2022-07-29T13:07:54.344Z,0.70
2022-07-29T13:10:24.985Z,0.90
2022-07-29T13:13:09.215Z,2.10
2022-07-29T13:15:42.374Z,1.10
2022-07-29T13:18:34.955Z,1.90
2022-07-29T13:21:17.726Z,1.20
2022-07-29T13:23:47.494Z,4.60
2022-07-29T13:26:19.318Z,0.80
2022-07-29T13:28:47.781Z,1.20
2022-07-29T13:31:16.196Z,1.50
2022-07-29T13:33:44.857Z,1.40
2022-07-29T13:36:13.128Z,0.70
2022-07-29T13:38:41.661Z,1.80
2022-07-29T13:41:10.401Z,1.20
2022-07-29T13:43:39.015Z,1.40
2022-07-29T13:46:07.363Z,0.60
2022-07-29T13:48:36.025Z,1.30
2022-07-29T13:51:04.309Z,1.60
2022-07-29T13:53:33.840Z,1.20
2022-07-29T13:56:02.706Z,1.40
2022-07-29T13:58:31.305Z,0.70
2022-07-29T14:01:00.117Z,1.00
2022-07-29T14:03:29.173Z,1.40
2022-07-29T14:05:57.900Z,1.10
2022-07-29T14:08:26.417Z,1.40
2022-07-29T14:10:54.681Z,1.80
2022-07-29T14:13:25.164Z,1.90
2022-07-29T14:15:54.313Z,1.80
2022-07-29T14:18:22.667Z,1.60
2022-07-29T14:20:52.225Z,2.10
2022-07-29T14:23:20.580Z,0.70
2022-07-29T14:25:49.408Z,1.40
2022-07-29T14:28:17.990Z,0.60
2022-07-29T14:30:47.217Z,0.80
2022-07-29T14:33:15.669Z,0.60
2022-07-29T14:35:44.810Z,1.80
2022-07-29T14:38:13.176Z,2.10
2022-07-29T14:40:41.722Z,1.20
2022-07-29T14:43:10.076Z,2.20
2022-07-29T14:45:38.696Z,2.10
2022-07-29T14:48:07.312Z,1.60
2022-07-29T14:50:36.051Z,2.00
2022-07-29T14:53:04.741Z,0.90
2022-07-29T14:55:33.505Z,1.30
2022-07-29T14:58:09.735Z,1.70
2022-07-29T15:00:40.542Z,1.40
2022-07-29T15:03:11.552Z,1.00
2022-07-29T15:05:40.189Z,1.50
2022-07-29T15:08:09.339Z,1.50
2022-07-29T15:10:37.703Z,0.90
2022-07-29T15:13:06.202Z,0.70
2022-07-29T15:15:34.967Z,3.70
2022-07-29T15:18:03.499Z,0.60
2022-07-29T15:20:32.123Z,0.90
2022-07-29T15:23:00.364Z,1.10
2022-07-29T15:25:28.667Z,1.30
2022-07-29T15:28:01.082Z,1.70
2022-07-29T15:30:33.422Z,0.60
2022-07-29T15:33:04.512Z,0.90
2022-07-29T15:35:33.507Z,1.80
2022-07-29T15:38:09.528Z,1.20
2022-07-29T15:40:40.076Z,1.60
2022-07-29T15:43:08.458Z,1.30
2022-07-29T15:45:42.064Z,1.00
2022-07-29T15:48:14.507Z,1.50
2022-07-29T15:50:46.931Z,1.40
2022-07-29T15:53:15.498Z,0.90
2022-07-29T15:55:44.560Z,1.30
2022-07-29T15:58:12.992Z,0.60
2022-07-29T16:00:41.422Z,0.80
2022-07-29T16:03:09.800Z,1.00
2022-07-29T16:05:38.104Z,2.00
2022-07-29T16:08:07.134Z,0.80
2022-07-29T16:10:35.500Z,0.80
2022-07-29T16:13:03.951Z,1.00
2022-07-29T16:15:32.459Z,3.30
2022-07-29T16:18:01.092Z,0.70
2022-07-29T16:20:29.473Z,1.30
2022-07-29T16:22:57.760Z,2.70
2022-07-29T16:25:43.922Z,2.50
2022-07-29T16:28:14.382Z,1.60
2022-07-29T16:30:42.681Z,2.30
2022-07-29T16:33:11.033Z,0.70
2022-07-29T16:35:40.693Z,1.90
2022-07-29T16:38:09.129Z,1.10
2022-07-29T16:40:37.496Z,1.60
2022-07-29T16:43:06.585Z,1.80
2022-07-29T16:45:42.559Z,1.40
2022-07-29T16:48:18.073Z,1.10
2022-07-29T16:50:47.125Z,1.30
2022-07-29T16:53:15.481Z,1.10
2022-07-29T16:55:44.108Z,3.30
2022-07-29T16:58:12.322Z,3.90
2022-07-29T17:00:40.917Z,0.90
2022-07-29T17:03:09.265Z,3.30
2022-07-29T17:05:50.683Z,4.60
2022-07-29T17:08:23.269Z,2.30
2022-07-29T17:10:51.658Z,2.20
2022-07-29T17:13:20.428Z,1.90
2022-07-29T17:15:48.868Z,0.90
2022-07-29T17:18:17.780Z,2.20
2022-07-29T17:20:46.821Z,2.50
2022-07-29T17:23:15.127Z,0.90
2022-07-29T17:25:43.422Z,1.60
2022-07-29T17:28:11.759Z,3.30
2022-07-29T17:30:40.039Z,4.20
2022-07-29T17:33:08.381Z,1.70
2022-07-29T17:35:55.129Z,3.70
2022-07-29T17:38:23.479Z,4.70
2022-07-29T17:40:51.858Z,1.90
2022-07-29T17:43:20.193Z,3.30
2022-07-29T17:45:49.426Z,1.90
2022-07-29T17:48:19.735Z,2.70
2022-07-29T17:50:50.720Z,1.70
2022-07-29T17:53:19.097Z,2.70
2022-07-29T17:55:52.088Z,2.20
2022-07-29T17:58:20.459Z,3.90
2022-07-29T18:00:49.038Z,2.30
2022-07-29T18:03:17.907Z,2.40
2022-07-29T18:05:46.670Z,1.70
2022-07-29T18:08:17.071Z,1.50
2022-07-29T18:10:46.293Z,1.40
2022-07-29T18:13:14.657Z,3.70
2022-07-29T18:15:45.881Z,6.10
2022-07-29T18:18:15.320Z,2.90
2022-07-29T18:20:43.718Z,2.70
2022-07-29T18:23:12.881Z,2.30
2022-07-29T18:25:41.341Z,2.10
2022-07-29T18:28:09.690Z,1.40
2022-07-29T18:30:38.215Z,1.70
2022-07-29T18:33:24.259Z,1.70
2022-07-29T18:36:10.877Z,2.70
2022-07-29T18:38:41.422Z,1.90
2022-07-29T18:41:10.098Z,1.50
2022-07-29T18:43:38.433Z,1.40
2022-07-29T18:46:06.926Z,6.90
2022-07-29T18:48:35.454Z,2.10
2022-07-29T18:51:09.493Z,1.90
2022-07-29T18:53:38.141Z,4.00
2022-07-29T18:56:06.502Z,2.40
2022-07-29T18:58:37.100Z,2.30
2022-07-29T19:01:06.460Z,2.00
2022-07-29T19:03:35.085Z,2.40
2022-07-29T19:06:03.572Z,3.60
2022-07-29T19:08:32.987Z,3.70
2022-07-29T19:11:01.248Z,2.10
2022-07-29T19:13:29.540Z,4.30
2022-07-29T19:15:58.026Z,3.40
2022-07-29T19:18:26.458Z,2.10
2022-07-29T19:20:54.811Z,3.40
2022-07-29T19:23:23.718Z,1.90
2022-07-29T19:25:53.776Z,1.80
2022-07-29T19:28:22.788Z,1.60
2022-07-29T19:30:51.341Z,1.80
2022-07-29T19:33:19.798Z,2.90
2022-07-29T19:35:52.831Z,2.90
2022-07-29T19:38:23.542Z,2.50
2022-07-29T19:40:52.324Z,2.10
2022-07-29T19:43:51.799Z,3.80
2022-07-29T19:46:09.866Z,1.70
2022-07-29T19:48:39.065Z,3.10
2022-07-29T19:51:07.384Z,3.20
2022-07-29T19:53:35.664Z,2.60
2022-07-29T19:56:04.237Z,2.10
2022-07-29T19:58:32.618Z,1.90
2022-07-29T20:01:00.937Z,2.60
2022-07-29T20:03:29.947Z,1.60
2022-07-29T20:05:58.427Z,2.00
2022-07-29T20:08:26.790Z,3.20
2022-07-29T20:10:56.155Z,2.00
2022-07-29T20:13:24.757Z,2.20
2022-07-29T20:15:53.182Z,2.90
2022-07-29T20:18:21.605Z,2.50
2022-07-29T20:20:50.238Z,3.60
2022-07-29T20:23:19.514Z,4.60
2022-07-29T20:25:48.571Z,4.20
2022-07-29T20:28:17.005Z,3.00
2022-07-29T20:30:45.581Z,2.20
2022-07-29T20:33:16.094Z,4.00
2022-07-29T20:35:44.529Z,3.10
2022-07-29T20:38:18.078Z,2.20
2022-07-29T20:40:46.748Z,2.00
2022-07-29T20:43:15.078Z,3.30
2022-07-29T20:45:43.520Z,2.20
2022-07-29T20:48:13.676Z,3.50
2022-07-29T20:50:42.967Z,3.00
2022-07-29T20:53:11.699Z,3.00
2022-07-29T20:55:40.066Z,2.10
2022-07-29T20:58:08.922Z,6.40
2022-07-29T21:00:37.586Z,2.10
2022-07-29T21:03:06.450Z,2.90
2022-07-29T21:05:37.142Z,2.00
2022-07-29T21:08:05.767Z,1.40
2022-07-29T21:10:34.055Z,2.20
2022-07-29T21:13:02.424Z,2.20
2022-07-29T21:15:30.927Z,2.60
2022-07-29T21:18:02.819Z,3.20
2022-07-29T21:20:31.724Z,1.90
2022-07-29T21:23:00.474Z,2.10
2022-07-29T21:25:29.804Z,1.70
2022-07-29T21:28:19.049Z,1.40
2022-07-29T21:30:47.435Z,2.10
2022-07-29T21:33:15.784Z,2.70
2022-07-29T21:36:06.171Z,1.40
2022-07-29T21:38:33.255Z,2.40
2022-07-29T21:41:02.728Z,2.90
2022-07-29T21:43:31.606Z,1.60
2022-07-29T21:46:00.704Z,2.60
2022-07-29T21:48:29.464Z,1.30
2022-07-29T21:50:57.892Z,1.70
2022-07-29T21:53:28.295Z,2.30
2022-07-29T21:55:57.016Z,2.70
2022-07-29T21:58:25.529Z,2.70
2022-07-29T22:00:54.167Z,3.40
2022-07-29T22:03:22.537Z,1.90
2022-07-29T22:05:50.851Z,0.80
2022-07-29T22:08:21.506Z,2.70
2022-07-29T22:10:50.188Z,2.40
2022-07-29T22:13:18.571Z,1.70
2022-07-29T22:15:47.419Z,1.60
2022-07-29T22:18:20.533Z,2.70
2022-07-29T22:20:50.819Z,1.40
2022-07-29T22:23:19.251Z,2.40
2022-07-29T22:25:47.721Z,1.30
2022-07-29T22:28:15.908Z,1.60
2022-07-29T22:30:44.305Z,2.20
2022-07-29T22:33:17.881Z,1.20
2022-07-29T22:35:48.636Z,2.70
2022-07-29T22:38:18.689Z,1.40
2022-07-29T22:40:48.580Z,1.50
2022-07-29T22:43:17.076Z,1.20
2022-07-29T22:45:45.596Z,3.50
2022-07-29T22:48:14.015Z,2.30
2022-07-29T22:50:42.411Z,1.00
2022-07-29T22:53:10.582Z,2.20
2022-07-29T22:55:38.958Z,1.00
2022-07-29T22:58:07.347Z,1.40
2022-07-29T23:00:35.761Z,1.60
2022-07-29T23:03:04.542Z,1.20
2022-07-29T23:05:33.614Z,1.90
2022-07-29T23:08:01.901Z,3.20
2022-07-29T23:10:30.214Z,1.30
2022-07-29T23:12:59.135Z,1.90
2022-07-29T23:15:27.830Z,1.90
2022-07-29T23:17:56.211Z,1.80
2022-07-29T23:20:24.635Z,1.10
2022-07-29T23:22:53.062Z,1.40
2022-07-29T23:25:21.434Z,1.70
2022-07-29T23:27:49.690Z,1.50
2022-07-29T23:30:17.914Z,1.00
2022-07-29T23:32:46.447Z,0.80
2022-07-29T23:35:14.878Z,1.30
2022-07-29T23:37:43.292Z,2.00
2022-07-29T23:40:14.428Z,1.50
2022-07-29T23:42:44.039Z,2.40
2022-07-29T23:45:13.741Z,4.40
2022-07-29T23:47:42.812Z,1.80
2022-07-29T23:50:12.680Z,1.40
2022-07-29T23:52:41.853Z,3.00
2022-07-29T23:55:36.664Z,2.00
2022-07-29T23:58:00.213Z,2.30
